Time;durP1;ratioP1;P1;durP2;ratioP2;P2;SDS_P1;SDS_P2;PMS_P1;PMS_P2;Temp;Humidity;BMP_temperature;BMP_pressure;BME280_temperature;BME280_humidity;BME280_pressure;Samples;Min_cycle;Max_cycle;Signal;HPM_P1;HPM_P2
2022/09/14 00:01:54;;;;;;;19.07;15.17;;;;;;;18.55;100.00;98329.09;4890619;29;20206;-83
2022/09/14 00:04:23;;;;;;;20.63;15.33;;;;;;;18.55;100.00;98331.78;4892710;29;20198;-83
2022/09/14 00:06:55;;;;;;;20.67;15.60;;;;;;;18.66;100.00;98330.63;4888228;29;20234;-84
2022/09/14 00:09:26;;;;;;;22.03;15.77;;;;;;;18.75;100.00;98334.97;4926059;28;20203;-84
2022/09/14 00:11:55;;;;;;;19.77;16.30;;;;;;;18.97;100.00;98337.94;5023373;28;20313;-83
2022/09/14 00:14:23;;;;;;;20.60;16.57;;;;;;;18.83;100.00;98337.66;5089558;28;20222;-83
2022/09/14 00:16:51;;;;;;;20.10;15.43;;;;;;;18.88;100.00;98329.91;5090571;28;20196;-83
2022/09/14 00:19:23;;;;;;;19.60;14.80;;;;;;;18.98;100.00;98323.50;5086404;28;20196;-83
2022/09/14 00:21:59;;;;;;;20.73;15.50;;;;;;;19.05;100.00;98319.13;5084821;28;20202;-83
2022/09/14 00:24:30;;;;;;;17.77;15.07;;;;;;;19.05;100.00;98316.44;5086409;28;20248;-84
2022/09/14 00:26:58;;;;;;;19.50;14.80;;;;;;;19.05;100.00;98306.53;5086397;28;20252;-84
2022/09/14 00:29:26;;;;;;;17.83;14.30;;;;;;;19.07;100.00;98303.69;5082979;28;20194;-83
2022/09/14 00:31:57;;;;;;;18.10;15.43;;;;;;;19.06;100.00;98312.75;5084879;28;20254;-83
2022/09/14 00:34:25;;;;;;;19.37;14.93;;;;;;;19.08;100.00;98300.81;5024161;28;20197;-83
2022/09/14 00:36:55;;;;;;;20.33;16.40;;;;;;;19.06;100.00;98294.78;5022174;28;20189;-83
2022/09/14 00:39:26;;;;;;;18.87;15.03;;;;;;;19.11;100.00;98294.28;5024805;28;20232;-83
2022/09/14 00:41:55;;;;;;;22.33;15.77;;;;;;;19.00;100.00;98291.97;5020706;28;20256;-83
2022/09/14 00:45:09;;;;;;;18.37;15.80;;;;;;;19.02;100.00;98287.28;5021537;28;20201;-83
2022/09/14 00:47:37;;;;;;;22.10;15.87;;;;;;;18.98;100.00;98278.72;4983528;28;20193;-83
2022/09/14 00:50:08;;;;;;;18.90;15.67;;;;;;;18.96;100.00;98277.22;5025723;28;20229;-83
2022/09/14 00:52:42;;;;;;;17.47;13.57;;;;;;;19.11;100.00;98275.50;5061771;28;20211;-84
2022/09/14 00:55:13;;;;;;;17.03;14.20;;;;;;;19.14;100.00;98267.94;5092964;28;20220;-83
2022/09/14 00:57:45;;;;;;;19.77;15.17;;;;;;;19.11;100.00;98262.91;5082509;28;20257;-83
2022/09/14 01:00:16;;;;;;;19.77;15.07;;;;;;;18.99;100.00;98266.97;5083873;28;20231;-83
2022/09/14 01:02:45;;;;;;;18.87;14.50;;;;;;;19.04;100.00;98267.28;5090335;28;20196;-84
2022/09/14 01:05:13;;;;;;;20.07;14.70;;;;;;;19.03;100.00;98252.22;5086203;28;20188;-84
2022/09/14 01:11:05;;;;;;;21.77;16.50;;;;;;;19.01;100.00;98231.91;5131799;27;20534;-84
2022/09/14 01:13:46;;;;;;;21.30;15.63;;;;;;;19.05;100.00;98238.59;5130403;27;20226;-84
2022/09/14 01:16:23;;;;;;;22.67;15.63;;;;;;;18.91;100.00;98218.69;5129124;27;20259;-83
2022/09/14 01:19:00;;;;;;;22.20;16.50;;;;;;;18.78;100.00;98243.41;5129426;27;20204;-83
2022/09/14 01:21:31;;;;;;;19.90;15.60;;;;;;;18.62;100.00;98254.13;5130670;27;20182;-83
2022/09/14 01:24:07;;;;;;;20.53;15.57;;;;;;;18.70;100.00;98277.47;5128349;27;20202;-83
2022/09/14 01:27:30;;;;;;;21.13;16.37;;;;;;;18.73;100.00;98269.91;5021220;28;20246;-83
2022/09/14 01:30:21;;;;;;;21.63;15.30;;;;;;;18.76;100.00;98264.19;5026458;28;20260;-83
2022/09/14 01:32:56;;;;;;;21.20;15.63;;;;;;;18.81;100.00;98271.72;5062085;28;20222;-83
2022/09/14 01:35:29;;;;;;;20.50;16.67;;;;;;;18.71;100.00;98263.88;5065579;28;20234;-83
2022/09/14 01:38:03;;;;;;;24.73;18.40;;;;;;;18.70;100.00;98270.25;5063261;28;20340;-83
2022/09/14 01:40:36;;;;;;;23.83;17.60;;;;;;;18.56;100.00;98271.75;5065579;28;20552;-83
2022/09/14 01:43:10;;;;;;;23.20;17.87;;;;;;;18.39;100.00;98280.84;5060264;28;20200;-83
2022/09/14 01:45:47;;;;;;;25.93;18.97;;;;;;;18.13;100.00;98291.72;5116563;27;20684;-83
2022/09/14 01:48:20;;;;;;;25.83;18.73;;;;;;;17.97;100.00;98305.13;5130946;27;20637;-83
2022/09/14 01:50:53;;;;;;;29.93;20.60;;;;;;;18.00;100.00;98302.94;5127643;27;20541;-83
2022/09/14 01:53:27;;;;;;;29.97;21.03;;;;;;;18.20;100.00;98302.63;5130819;27;20190;-83
2022/09/14 01:56:01;;;;;;;28.17;21.17;;;;;;;18.36;100.00;98305.31;5130838;27;20199;-83
2022/09/14 01:58:37;;;;;;;29.03;20.43;;;;;;;18.41;100.00;98296.75;5128111;27;20205;-83
2022/09/14 02:01:10;;;;;;;27.27;20.67;;;;;;;18.42;100.00;98301.09;5124674;27;20198;-83
2022/09/14 02:03:43;;;;;;;34.23;24.27;;;;;;;18.20;100.00;98294.59;5124786;27;20234;-83
2022/09/14 02:06:17;;;;;;;30.93;23.77;;;;;;;18.36;100.00;98296.44;5126665;27;20187;-83
2022/09/14 02:08:46;;;;;;;34.03;24.10;;;;;;;18.33;100.00;98294.06;5115610;27;20217;-83
2022/09/14 02:11:14;;;;;;;34.33;25.40;;;;;;;18.13;100.00;98291.72;5130167;27;20202;-83
2022/09/14 02:13:42;;;;;;;35.30;26.07;;;;;;;18.27;100.00;98290.22;5083562;28;20184;-83
2022/09/14 02:16:13;;;;;;;35.27;26.20;;;;;;;18.34;100.00;98274.31;5081185;28;20218;-83
2022/09/14 02:18:42;;;;;;;37.20;27.83;;;;;;;18.20;100.00;98275.81;5078829;28;20206;-83
2022/09/14 02:21:15;;;;;;;38.43;27.13;;;;;;;18.24;100.00;98263.78;5032195;28;20197;-83
2022/09/14 02:23:44;;;;;;;34.77;26.27;;;;;;;18.22;100.00;98265.75;5024290;28;20197;-83
2022/09/14 02:26:13;;;;;;;34.03;24.67;;;;;;;18.25;100.00;98271.66;5033288;28;20272;-83
2022/09/14 02:28:41;;;;;;;36.23;25.07;;;;;;;18.38;100.00;98272.97;5027807;28;20214;-83
2022/09/14 02:31:22;;;;;;;32.33;24.40;;;;;;;18.31;100.00;98273.63;5023662;28;20213;-83
2022/09/14 02:34:01;;;;;;;33.87;24.60;;;;;;;18.29;100.00;98275.66;5031572;28;20193;-83
2022/09/14 02:36:40;;;;;;;35.17;24.63;;;;;;;18.36;100.00;98267.78;5028989;28;20209;-84
2022/09/14 02:39:21;;;;;;;35.30;25.03;;;;;;;18.65;100.00;98259.22;5070082;28;20187;-84
2022/09/14 02:41:57;;;;;;;30.90;23.70;;;;;;;18.60;100.00;98253.47;5111709;28;20228;-83
2022/09/14 02:44:38;;;;;;;32.37;23.67;;;;;;;18.57;100.00;98243.09;5111455;28;20256;-83
2022/09/14 02:47:17;;;;;;;30.47;22.83;;;;;;;18.63;100.00;98242.41;5114473;28;20285;-83
2022/09/14 02:49:58;;;;;;;30.07;22.70;;;;;;;18.60;100.00;98237.38;5112740;28;20656;-83
2022/09/14 02:52:33;;;;;;;32.93;24.73;;;;;;;18.63;100.00;98238.91;5110710;28;20191;-83
2022/09/14 02:55:10;;;;;;;31.60;23.53;;;;;;;18.77;100.00;98228.31;5116575;27;20209;-83
2022/09/14 02:58:00;;;;;;;29.43;21.57;;;;;;;18.78;100.00;98224.63;5112605;28;20183;-84
2022/09/14 03:00:30;;;;;;;29.10;20.57;;;;;;;18.69;100.00;98220.28;5110375;28;20626;-83
2022/09/14 03:03:00;;;;;;;27.97;20.40;;;;;;;18.68;100.00;98215.94;5105710;28;20223;-83
2022/09/14 03:05:29;;;;;;;28.53;22.00;;;;;;;18.66;100.00;98211.75;5112788;28;20194;-83
2022/09/14 03:08:00;;;;;;;29.67;22.33;;;;;;;18.78;100.00;98211.19;5113704;28;20199;-84
2022/09/14 03:10:31;;;;;;;26.80;20.60;;;;;;;18.81;100.00;98202.78;5103537;28;20345;-84
2022/09/14 03:12:59;;;;;;;25.10;20.83;;;;;;;18.81;100.00;98205.47;5112927;28;20191;-84
2022/09/14 03:15:28;;;;;;;27.30;20.57;;;;;;;18.83;100.00;98208.84;5115459;28;20240;-86
2022/09/14 03:18:03;;;;;;;27.90;21.67;;;;;;;18.73;100.00;98208.22;5118062;27;20638;-84
2022/09/14 03:20:33;;;;;;;29.10;21.93;;;;;;;18.74;100.00;98196.47;5114354;28;20221;-84
2022/09/14 03:23:02;;;;;;;29.73;21.67;;;;;;;18.93;100.00;98210.50;5112544;28;20225;-84
2022/09/14 03:25:31;;;;;;;27.90;20.87;;;;;;;18.86;100.00;98202.28;5112340;28;20584;-85
2022/09/14 03:28:00;;;;;;;29.80;22.27;;;;;;;18.83;100.00;98199.97;5108245;28;20183;-86
2022/09/14 03:30:30;;;;;;;28.50;21.60;;;;;;;18.81;100.00;98201.97;5113821;28;20226;-85
2022/09/14 03:33:02;;;;;;;27.97;21.70;;;;;;;18.72;100.00;98194.94;5108770;28;20234;-85
2022/09/14 03:35:34;;;;;;;31.83;21.87;;;;;;;18.67;100.00;98187.44;5111919;28;20251;-84
2022/09/14 03:38:03;;;;;;;29.10;22.30;;;;;;;18.68;100.00;98199.84;5115292;28;20199;-85
2022/09/14 03:40:32;;;;;;;30.90;22.10;;;;;;;18.66;100.00;98195.66;5117606;27;20219;-85
2022/09/14 03:43:00;;;;;;;28.93;22.37;;;;;;;18.62;100.00;98191.59;5113720;28;20188;-85
2022/09/14 03:45:29;;;;;;;30.77;24.03;;;;;;;18.63;100.00;98182.56;5112652;28;20210;-86
2022/09/14 03:47:57;;;;;;;30.50;23.50;;;;;;;18.65;100.00;98186.78;5049285;28;20280;-86
2022/09/14 03:50:27;;;;;;;29.83;24.13;;;;;;;18.63;100.00;98172.69;5049687;28;20252;-86
2022/09/14 03:52:57;;;;;;;29.23;23.87;;;;;;;18.58;100.00;98185.75;5047965;28;20661;-85
2022/09/14 03:55:27;;;;;;;29.50;23.77;;;;;;;18.54;100.00;98185.28;5042459;28;20205;-85
2022/09/14 03:57:56;;;;;;;30.03;25.10;;;;;;;18.51;100.00;98177.56;5041381;28;20192;-86
2022/09/14 04:00:24;;;;;;;29.80;26.33;;;;;;;18.41;100.00;98176.91;5047080;28;20204;-84
2022/09/14 04:02:52;;;;;;;31.17;24.00;;;;;;;18.39;100.00;98180.78;5050016;28;20224;-84
2022/09/14 04:05:21;;;;;;;25.63;22.47;;;;;;;18.36;100.00;98176.63;5054076;28;20207;-84
2022/09/14 04:07:50;;;;;;;26.77;22.97;;;;;;;18.34;100.00;98178.63;5109672;28;20227;-85
2022/09/14 04:10:20;;;;;;;32.13;23.60;;;;;;;18.31;100.00;98177.13;5108065;28;20254;-86
2022/09/14 04:12:48;;;;;;;29.50;23.20;;;;;;;18.36;100.00;98173.94;5111106;28;20191;-85
2022/09/14 04:15:17;;;;;;;28.27;23.17;;;;;;;18.29;100.00;98178.31;5112188;28;20198;-85
2022/09/14 04:17:48;;;;;;;29.00;23.20;;;;;;;18.31;100.00;98177.13;5109919;28;20195;-85
2022/09/14 04:20:18;;;;;;;30.17;23.77;;;;;;;18.37;100.00;98182.81;5114487;28;20195;-85
2022/09/14 04:22:50;;;;;;;27.43;23.13;;;;;;;18.39;100.00;98178.94;5117095;27;20278;-86
2022/09/14 04:25:21;;;;;;;28.50;23.03;;;;;;;18.47;100.00;98183.44;5105921;28;20195;-85
2022/09/14 04:27:53;;;;;;;29.07;22.93;;;;;;;18.40;100.00;98185.13;5050258;28;20197;-86
2022/09/14 04:30:42;;;;;;;26.20;21.30;;;;;;;18.41;100.00;98176.91;5051383;28;20311;-85
2022/09/14 04:33:10;;;;;;;22.67;19.50;;;;;;;18.32;100.00;98175.25;5051634;28;20193;-86
2022/09/14 04:35:41;;;;;;;21.70;19.00;;;;;;;18.32;100.00;98177.94;5045388;28;20235;-86
2022/09/14 04:38:09;;;;;;;18.43;16.17;;;;;;;18.34;100.00;98180.47;4996621;28;20216;-85
2022/09/14 04:40:42;;;;;;;18.67;16.13;;;;;;;18.28;100.00;98176.63;5047978;28;20219;-86
2022/09/14 04:43:10;;;;;;;18.70;15.40;;;;;;;18.29;100.00;98181.81;5047304;28;20672;-85
2022/09/14 04:45:39;;;;;;;20.23;16.70;;;;;;;18.30;100.00;98180.81;5073233;28;20238;-85
2022/09/14 04:48:07;;;;;;;19.67;15.83;;;;;;;18.19;100.00;98173.13;5115937;27;20199;-85
2022/09/14 04:50:36;;;;;;;18.40;15.37;;;;;;;18.25;100.00;98176.97;5108080;28;20256;-85
2022/09/14 04:53:04;;;;;;;19.60;15.80;;;;;;;18.24;100.00;98173.47;5071116;28;20242;-85
2022/09/14 04:55:33;;;;;;;20.63;16.53;;;;;;;18.26;100.00;98175.97;5067034;28;20236;-86
2022/09/14 04:58:03;;;;;;;20.67;15.77;;;;;;;18.36;100.00;98176.63;5065548;28;20667;-85
2022/09/14 05:00:34;;;;;;;19.77;15.27;;;;;;;18.38;100.00;98174.59;5064148;28;20204;-85
2022/09/14 05:03:05;;;;;;;18.53;15.40;;;;;;;18.40;100.00;98171.72;5063071;28;20224;-85
2022/09/14 05:05:37;;;;;;;18.73;15.47;;;;;;;18.57;100.00;98162.63;5068271;28;20196;-85
2022/09/14 05:08:09;;;;;;;19.50;16.37;;;;;;;18.60;100.00;98160.44;5065595;28;20292;-85
2022/09/14 05:10:38;;;;;;;20.53;15.43;;;;;;;18.53;100.00;98164.84;5077516;28;20272;-86
2022/09/14 05:13:07;;;;;;;20.30;16.27;;;;;;;18.60;100.00;98154.22;5109527;28;20187;-85
2022/09/14 05:15:36;;;;;;;18.43;15.87;;;;;;;18.57;100.00;98150.06;5113408;28;20245;-84
2022/09/14 05:18:05;;;;;;;18.07;14.83;;;;;;;18.58;100.00;98150.88;5113185;28;20205;-85
2022/09/14 05:20:34;;;;;;;19.43;15.53;;;;;;;18.47;100.00;98148.59;5109333;28;20244;-86
2022/09/14 05:23:04;;;;;;;19.07;15.60;;;;;;;18.33;100.00;98136.72;5109794;28;20239;-85
2022/09/14 05:25:32;;;;;;;20.27;16.20;;;;;;;18.33;100.00;98142.09;5115861;27;20664;-85
2022/09/14 05:28:01;;;;;;;20.73;16.13;;;;;;;18.33;100.00;98146.59;5109437;28;20244;-85
2022/09/14 05:30:31;;;;;;;20.20;15.50;;;;;;;18.42;100.00;98134.84;5109416;28;20222;-85
2022/09/14 05:33:01;;;;;;;19.83;14.67;;;;;;;18.36;100.00;98143.59;5112772;28;20223;-85
2022/09/14 05:35:29;;;;;;;18.17;13.77;;;;;;;18.29;100.00;98146.97;5110018;28;20193;-84
2022/09/14 05:37:57;;;;;;;18.90;14.17;;;;;;;18.39;100.00;98143.25;5111101;28;20344;-86
2022/09/14 05:40:26;;;;;;;17.20;13.83;;;;;;;18.48;100.00;98142.22;5113243;28;20223;-85
2022/09/14 05:42:54;;;;;;;16.73;13.43;;;;;;;18.47;100.00;98141.38;5113113;27;20198;-85
2022/09/14 05:45:22;;;;;;;16.73;12.60;;;;;;;18.39;100.00;98133.38;5112414;28;20191;-85
2022/09/14 05:47:52;;;;;;;16.23;12.40;;;;;;;18.15;100.00;98141.50;5114867;27;20294;-85
2022/09/14 05:50:22;;;;;;;16.93;12.30;;;;;;;18.30;100.00;98134.41;5108444;28;20305;-85
2022/09/14 05:52:50;;;;;;;15.43;12.03;;;;;;;18.25;100.00;98140.28;5113364;28;20211;-85
2022/09/14 05:55:18;;;;;;;15.63;11.50;;;;;;;18.28;100.00;98137.25;5108372;28;20195;-84
2022/09/14 05:57:49;;;;;;;16.30;11.37;;;;;;;18.21;100.00;98138.09;5115795;28;20203;-86
2022/09/14 06:00:20;;;;;;;14.47;11.03;;;;;;;18.29;100.00;98132.72;5109047;28;20240;-85
2022/09/14 06:02:50;;;;;;;14.20;10.13;;;;;;;18.22;100.00;98139.78;5117134;27;20202;-85
2022/09/14 06:05:20;;;;;;;13.80;10.17;;;;;;;18.25;100.00;98145.66;5117173;28;20271;-85
2022/09/14 06:07:51;;;;;;;13.43;10.00;;;;;;;18.33;100.00;98144.75;5116795;28;20199;-84
2022/09/14 06:10:20;;;;;;;11.50;8.80;;;;;;;18.40;100.00;98147.59;5115163;28;20215;-85
2022/09/14 06:12:49;;;;;;;12.90;9.47;;;;;;;18.40;100.00;98142.25;5112295;28;20215;-85
2022/09/14 06:15:23;;;;;;;10.73;8.00;;;;;;;18.45;100.00;98142.56;5116730;28;20206;-87
2022/09/14 06:17:52;;;;;;;10.00;7.77;;;;;;;18.46;100.00;98137.03;5116624;28;20198;-84
2022/09/14 06:20:23;;;;;;;10.53;7.07;;;;;;;18.50;100.00;98135.66;5112554;28;20234;-85
2022/09/14 06:22:56;;;;;;;10.70;7.17;;;;;;;18.50;100.00;98142.88;5115159;28;20187;-85
2022/09/14 06:25:26;;;;;;;9.73;7.80;;;;;;;18.38;100.00;98141.59;5113635;28;20199;-85
2022/09/14 06:27:55;;;;;;;9.97;7.50;;;;;;;18.44;100.00;98138.22;5115186;27;20222;-86
2022/09/14 06:30:23;;;;;;;12.00;7.50;;;;;;;18.26;100.00;98139.28;5116063;28;20263;-85
2022/09/14 06:32:51;;;;;;;10.93;6.90;;;;;;;18.35;100.00;98136.56;5107361;28;20218;-85
2022/09/14 06:35:19;;;;;;;10.77;7.63;;;;;;;18.16;100.00;98135.94;5114196;28;20191;-85
2022/09/14 06:37:49;;;;;;;8.20;6.47;;;;;;;18.32;100.00;98129.69;5118299;27;20250;-85
2022/09/14 06:40:17;;;;;;;8.53;6.70;;;;;;;18.26;100.00;98136.59;5110986;28;20222;-86
2022/09/14 06:42:46;;;;;;;9.23;7.07;;;;;;;18.39;100.00;98137.88;5110745;28;20195;-86
2022/09/14 06:45:14;;;;;;;8.03;5.97;;;;;;;18.45;100.00;98137.22;5116099;28;20194;-86
2022/09/14 06:47:43;;;;;;;9.53;6.63;;;;;;;18.38;100.00;98133.53;5116151;28;20299;-85
2022/09/14 06:50:11;;;;;;;6.20;5.20;;;;;;;18.40;100.00;98135.03;5112113;28;20187;-87
2022/09/14 06:52:39;;;;;;;7.50;5.23;;;;;;;18.49;100.00;98127.78;5123754;27;20254;-87
2022/09/14 06:55:10;;;;;;;5.50;4.70;;;;;;;18.37;100.00;98132.72;5115864;28;20198;-87
2022/09/14 06:57:38;;;;;;;5.77;5.20;;;;;;;18.39;100.00;98128.00;5111957;28;20224;-87
2022/09/14 07:00:11;;;;;;;5.47;4.47;;;;;;;18.37;100.00;98132.72;5115575;28;20187;-87
2022/09/14 07:02:40;;;;;;;6.13;4.63;;;;;;;18.36;100.00;98143.59;5115616;28;20222;-88
2022/09/14 07:05:09;;;;;;;5.73;4.17;;;;;;;18.46;100.00;98138.88;5112770;28;20205;-89
2022/09/14 07:07:38;;;;;;;5.10;4.30;;;;;;;18.27;100.00;98146.31;5110666;28;20191;-88
2022/09/14 07:10:06;;;;;;;5.60;4.23;;;;;;;18.16;100.00;98137.81;5114334;28;20241;-89
2022/09/14 07:12:36;;;;;;;5.70;4.60;;;;;;;18.31;100.00;98147.63;5112913;28;20226;-87
2022/09/14 07:15:08;;;;;;;6.37;4.30;;;;;;;18.30;100.00;98142.44;5113422;27;20195;-87
2022/09/14 07:17:36;;;;;;;6.47;4.60;;;;;;;18.36;100.00;98139.06;5115157;28;20240;-87
2022/09/14 07:20:06;;;;;;;5.63;5.03;;;;;;;18.20;100.00;98147.16;5108344;28;20199;-89
2022/09/14 07:22:34;;;;;;;5.13;4.40;;;;;;;18.41;100.00;98144.75;5115479;28;20190;-87
2022/09/14 07:25:03;;;;;;;5.67;4.37;;;;;;;18.41;100.00;98154.63;5109928;28;20195;-87
2022/09/14 07:27:33;;;;;;;4.17;3.77;;;;;;;18.40;100.00;98151.13;5106202;28;20198;-87
2022/09/14 07:30:03;;;;;;;4.13;3.70;;;;;;;18.48;100.00;98148.41;5109923;28;20206;-87
2022/09/14 07:32:31;;;;;;;4.20;3.77;;;;;;;18.31;100.00;98152.97;5115202;28;20308;-87
2022/09/14 07:35:01;;;;;;;4.23;3.50;;;;;;;18.45;100.00;98145.25;5115080;28;20198;-86
2022/09/14 07:37:30;;;;;;;4.47;3.63;;;;;;;18.35;100.00;98147.31;5066286;28;20250;-85
2022/09/14 07:40:00;;;;;;;4.07;3.37;;;;;;;18.34;100.00;98146.47;5070020;28;20238;-87
2022/09/14 07:42:28;;;;;;;4.03;3.50;;;;;;;18.39;100.00;98145.94;5068500;28;20208;-86
2022/09/14 07:44:56;;;;;;;4.10;3.70;;;;;;;18.50;100.00;98142.88;5069391;28;20257;-84
2022/09/14 07:47:26;;;;;;;6.30;3.90;;;;;;;18.54;100.00;98149.59;5068970;28;20196;-87
2022/09/14 07:49:55;;;;;;;5.40;4.30;;;;;;;18.47;100.00;98141.38;5072516;28;20196;-86
2022/09/14 07:52:23;;;;;;;5.57;4.00;;;;;;;18.53;100.00;98139.88;5067392;28;20290;-86
2022/09/14 07:54:52;;;;;;;5.17;4.33;;;;;;;18.69;100.00;98138.97;5069041;28;20302;-85
2022/09/14 07:57:24;;;;;;;4.93;4.30;;;;;;;18.56;100.00;98134.16;5111795;27;20220;-86
2022/09/14 08:00:15;;;;;;;5.27;4.77;;;;;;;18.65;100.00;98133.13;5114965;28;20258;-86
2022/09/14 08:02:48;;;;;;;4.63;4.10;;;;;;;18.81;100.00;98140.25;5112389;28;20206;-83
2022/09/14 08:05:23;;;;;;;5.27;3.50;;;;;;;18.79;100.00;98137.75;5110890;28;20195;-83
2022/09/14 08:07:55;;;;;;;4.30;3.57;;;;;;;18.80;100.00;98133.22;5070136;28;20200;-84
2022/09/14 08:10:28;;;;;;;5.53;3.53;;;;;;;18.91;100.00;98135.50;5063772;28;20297;-83
2022/09/14 08:12:57;;;;;;;3.87;3.40;;;;;;;18.87;100.00;98126.13;5026783;28;20210;-83
2022/09/14 08:15:28;;;;;;;4.30;3.60;;;;;;;18.85;100.00;98137.06;5024898;28;20237;-83
2022/09/14 08:18:01;;;;;;;4.33;3.80;;;;;;;18.91;100.00;98140.03;4931924;29;20205;-82
2022/09/14 08:20:29;;;;;;;4.13;3.20;;;;;;;18.89;100.00;98129.47;4930480;29;20194;-82
2022/09/14 08:23:01;;;;;;;4.33;3.17;;;;;;;18.76;100.00;98122.00;4931770;29;20335;-82
2022/09/14 08:25:30;;;;;;;5.20;4.00;;;;;;;18.89;100.00;98121.44;4939823;28;20285;-82
2022/09/14 08:27:58;;;;;;;5.63;3.57;;;;;;;18.92;100.00;98122.94;4986235;28;20334;-82
2022/09/14 08:30:27;;;;;;;3.97;3.57;;;;;;;18.89;100.00;98134.84;4996091;28;20196;-83
2022/09/14 08:32:55;;;;;;;4.17;3.47;;;;;;;18.99;100.00;98119.34;5033751;28;20218;-83
2022/09/14 08:35:30;;;;;;;4.77;3.70;;;;;;;18.96;100.00;98130.44;5041747;28;20203;-83
2022/09/14 08:38:18;;;;;;;4.80;4.33;;;;;;;19.00;100.00;98120.19;5091242;28;20302;-83
2022/09/14 08:40:52;;;;;;;4.87;4.37;;;;;;;18.91;100.00;98127.44;5080644;28;20203;-83
2022/09/14 08:43:24;;;;;;;5.43;4.93;;;;;;;18.96;100.00;98135.00;5101921;28;20187;-83
2022/09/14 08:46:01;;;;;;;6.37;5.77;;;;;;;18.71;100.00;98131.59;5079051;28;20194;-83
2022/09/14 08:48:38;;;;;;;6.70;5.60;;;;;;;18.85;100.00;98126.31;5111393;28;20201;-82
2022/09/14 08:51:08;;;;;;;5.50;4.83;;;;;;;18.92;100.00;98131.84;5107310;28;20219;-83
2022/09/14 08:53:40;;;;;;;5.40;4.80;;;;;;;18.90;100.00;98127.63;5113204;27;20243;-82
2022/09/14 08:56:15;;;;;;;6.00;5.40;;;;;;;18.80;100.00;98125.16;5083866;28;20227;-83
2022/09/14 08:59:07;;;;;;;5.90;5.27;;;;;;;18.97;100.00;98132.13;5079613;28;20183;-82
2022/09/14 09:01:48;;;;;;;6.17;5.57;;;;;;;18.97;100.00;98125.91;5030593;28;20204;-82
2022/09/14 09:04:36;;;;;;;6.37;5.73;;;;;;;19.01;100.00;98122.72;5024666;28;20194;-82
2022/09/14 09:07:16;;;;;;;7.40;5.13;;;;;;;19.07;100.00;98122.00;5026744;28;20221;-82
2022/09/14 09:09:49;;;;;;;6.67;5.30;;;;;;;19.13;100.00;98132.03;5029403;28;20248;-82
2022/09/14 09:12:21;;;;;;;7.90;5.80;;;;;;;19.12;100.00;98132.22;5023140;28;20207;-82
2022/09/14 09:14:54;;;;;;;6.50;5.17;;;;;;;19.26;100.00;98127.91;5055900;28;20347;-82
2022/09/14 09:17:30;;;;;;;6.30;5.10;;;;;;;18.99;100.00;98138.13;5067009;28;20648;-82
2022/09/14 09:20:06;;;;;;;6.80;4.83;;;;;;;19.00;100.00;98147.84;5087214;28;20194;-82
2022/09/14 09:22:41;;;;;;;4.83;4.33;;;;;;;18.92;100.00;98155.16;5092577;28;20225;-82
2022/09/14 09:25:17;;;;;;;6.97;5.10;;;;;;;18.97;100.00;98156.28;5108983;28;20190;-82
2022/09/14 09:27:46;;;;;;;5.53;5.03;;;;;;;19.00;100.00;98161.28;5107395;28;20195;-83
2022/09/14 09:30:15;;;;;;;6.10;5.60;;;;;;;18.96;100.00;98141.19;5106741;28;20217;-83
2022/09/14 09:32:44;;;;;;;7.50;6.10;;;;;;;18.95;100.00;98130.63;5115611;28;20195;-84
2022/09/14 09:35:17;;;;;;;5.70;5.10;;;;;;;18.85;100.00;98134.38;5113477;28;20218;-83
2022/09/14 09:37:50;;;;;;;6.13;5.50;;;;;;;19.00;100.00;98137.13;5114378;28;20243;-83
2022/09/14 09:40:32;;;;;;;6.53;5.83;;;;;;;18.95;100.00;98127.94;5117523;28;20187;-83
2022/09/14 09:43:11;;;;;;;5.57;5.07;;;;;;;18.98;100.00;98127.59;5114180;28;20191;-83
2022/09/14 09:45:51;;;;;;;6.43;5.47;;;;;;;19.03;100.00;98135.97;5072553;28;20200;-82
2022/09/14 09:48:22;;;;;;;5.93;5.33;;;;;;;18.99;100.00;98148.03;5067158;28;21130;-82
2022/09/14 09:51:06;;;;;;;5.83;5.20;;;;;;;19.05;100.00;98148.19;5066076;28;20209;-82
2022/09/14 09:53:39;;;;;;;8.17;5.00;;;;;;;18.80;100.00;98152.00;5072648;28;20235;-82
2022/09/14 09:56:16;;;;;;;5.63;4.63;;;;;;;18.52;100.00;98160.44;5071421;28;20250;-82
2022/09/14 09:58:50;;;;;;;7.93;4.37;;;;;;;18.43;100.00;98163.34;4990526;28;20237;-81
2022/09/14 10:01:26;;;;;;;6.70;4.73;;;;;;;18.39;100.00;98149.44;4991897;28;20199;-82
2022/09/14 10:04:04;;;;;;;5.97;4.47;;;;;;;18.47;100.00;98162.84;4989453;28;20646;-81
2022/09/14 10:06:43;;;;;;;5.43;4.37;;;;;;;18.17;100.00;98167.09;4986125;28;20199;-82
2022/09/14 10:09:19;;;;;;;5.53;4.63;;;;;;;18.24;100.00;98153.88;4982214;28;20269;-82
2022/09/14 10:11:49;;;;;;;5.13;4.23;;;;;;;18.45;100.00;98145.25;4988442;28;20229;-83
2022/09/14 10:14:24;;;;;;;6.47;4.33;;;;;;;18.50;100.00;98137.50;4994271;28;20745;-83
2022/09/14 10:16:57;;;;;;;5.17;4.13;;;;;;;18.74;100.00;98134.78;4991963;28;20199;-83
2022/09/14 10:19:29;;;;;;;5.07;4.00;;;;;;;18.89;100.00;98132.16;4993741;28;20210;-83
2022/09/14 10:22:27;;;;;;;5.63;4.40;;;;;;;19.04;100.00;98129.56;4989095;28;20191;-83
2022/09/14 10:25:00;;;;;;;5.23;4.63;;;;;;;19.04;100.00;98126.88;5011902;28;20298;-83
2022/09/14 10:27:42;;;;;;;6.63;4.90;;;;;;;19.17;100.00;98114.53;5009550;28;20234;-83
2022/09/14 10:30:16;;;;;;;4.90;4.40;;;;;;;19.17;100.00;98111.03;5047860;28;20200;-82
2022/09/14 10:32:53;;;;;;;5.77;4.40;;;;;;;19.25;100.00;98102.91;5071298;28;20193;-82
2022/09/14 10:35:23;;;;;;;6.20;5.60;;;;;;;19.53;100.00;98086.25;5064666;28;20216;-83
2022/09/14 10:38:08;;;;;;;6.73;6.13;;;;;;;19.70;100.00;98085.13;5071392;28;20189;-82
2022/09/14 10:40:44;;;;;;;7.43;6.63;;;;;;;19.72;100.00;98078.53;5072804;28;20196;-82
2022/09/14 10:43:17;;;;;;;7.67;6.87;;;;;;;19.68;100.00;98079.06;5070877;28;20188;-82
2022/09/14 10:45:51;;;;;;;7.33;6.63;;;;;;;19.34;100.00;98077.69;5069758;28;20192;-82
2022/09/14 10:48:36;;;;;;;8.77;7.90;;;;;;;19.54;100.00;98077.19;5066739;28;20282;-82
2022/09/14 10:51:29;;;;;;;9.27;8.37;;;;;;;19.50;100.00;98078.56;5066889;28;20231;-82
2022/09/14 10:54:08;;;;;;;10.50;9.43;;;;;;;19.30;100.00;98064.78;5061275;28;20244;-82
2022/09/14 10:56:58;;;;;;;9.77;8.87;;;;;;;19.29;100.00;98063.09;5067976;28;20233;-82
2022/09/14 10:59:32;;;;;;;13.43;10.40;;;;;;;19.11;100.00;98058.91;5066567;28;20230;-82
2022/09/14 11:02:20;;;;;;;12.90;10.93;;;;;;;19.07;100.00;98054.88;5074546;28;20231;-83
2022/09/14 11:05:03;;;;;;;14.17;12.77;;;;;;;19.03;100.00;98053.59;5092964;28;20265;-82
2022/09/14 11:07:38;;;;;;;14.50;12.93;;;;;;;19.07;100.00;98046.84;5111096;28;20316;-81
2022/09/14 11:10:20;;;;;;;13.73;12.43;;;;;;;19.11;100.00;98055.38;5107847;28;20231;-82
2022/09/14 11:13:16;;;;;;;14.73;13.23;;;;;;;19.15;100.00;98041.41;5109095;28;20195;-82
2022/09/14 11:15:57;;;;;;;16.73;13.57;;;;;;;19.11;100.00;98041.97;5106600;28;20230;-82
2022/09/14 11:18:33;;;;;;;13.67;12.27;;;;;;;19.31;100.00;98036.94;5103836;28;20621;-82
2022/09/14 11:21:12;;;;;;;14.30;11.97;;;;;;;19.48;100.00;98048.34;5113013;28;20329;-82
2022/09/14 11:23:48;;;;;;;13.37;12.00;;;;;;;19.39;100.00;98045.72;5103903;28;20221;-82
2022/09/14 11:26:30;;;;;;;15.07;13.03;;;;;;;19.35;100.00;98062.41;5095811;28;20192;-81
2022/09/14 11:29:11;;;;;;;14.53;12.87;;;;;;;19.38;100.00;98049.44;5089879;28;20207;-81
2022/09/14 11:31:51;;;;;;;15.57;13.93;;;;;;;19.45;100.00;98044.19;5059391;28;20266;-82
2022/09/14 11:34:46;;;;;;;16.93;14.13;;;;;;;19.34;100.00;98047.31;5094674;28;20211;-82
2022/09/14 11:37:17;;;;;;;16.37;14.73;;;;;;;19.22;100.00;98043.38;5088243;28;20191;-81
2022/09/14 11:39:55;;;;;;;18.43;15.80;;;;;;;19.15;100.00;98051.31;5097187;27;20223;-81
2022/09/14 11:42:29;;;;;;;18.47;16.40;;;;;;;18.92;100.00;98058.53;5090730;28;20195;-81
2022/09/14 11:45:05;;;;;;;18.50;16.43;;;;;;;19.03;100.00;98047.38;5084912;28;20238;-81